sensor_id;sensor_type;location;lat;lon;timestamp;P1;durP1;ratioP1;P2;durP2;ratioP2
27839;SDS011;15207;42.182;24.308;2022-08-30T00:00:20;18.00;;;8.70;;
27839;SDS011;15207;42.182;24.308;2022-08-30T00:03:06;12.07;;;7.72;;
27839;SDS011;15207;42.182;24.308;2022-08-30T00:05:33;18.65;;;8.80;;
27839;SDS011;15207;42.182;24.308;2022-08-30T00:07:59;17.67;;;8.77;;
27839;SDS011;15207;42.182;24.308;2022-08-30T00:10:26;15.18;;;8.13;;
27839;SDS011;15207;42.182;24.308;2022-08-30T00:12:53;14.40;;;8.85;;
27839;SDS011;15207;42.182;24.308;2022-08-30T00:17:46;16.80;;;8.80;;
27839;SDS011;15207;42.182;24.308;2022-08-30T00:20:14;15.10;;;8.35;;
27839;SDS011;15207;42.182;24.308;2022-08-30T00:22:43;15.90;;;8.70;;
27839;SDS011;15207;42.182;24.308;2022-08-30T00:25:09;24.30;;;8.50;;
27839;SDS011;15207;42.182;24.308;2022-08-30T00:27:36;16.90;;;9.10;;
27839;SDS011;15207;42.182;24.308;2022-08-30T00:30:03;13.10;;;9.10;;
27839;SDS011;15207;42.182;24.308;2022-08-30T00:32:30;19.30;;;9.00;;
27839;SDS011;15207;42.182;24.308;2022-08-30T00:34:56;14.53;;;8.83;;
27839;SDS011;15207;42.182;24.308;2022-08-30T00:37:22;16.85;;;8.85;;
27839;SDS011;15207;42.182;24.308;2022-08-30T00:39:48;16.80;;;8.70;;
27839;SDS011;15207;42.182;24.308;2022-08-30T00:42:14;16.30;;;9.18;;
27839;SDS011;15207;42.182;24.308;2022-08-30T00:44:41;16.13;;;9.60;;
27839;SDS011;15207;42.182;24.308;2022-08-30T00:47:08;14.20;;;8.70;;
27839;SDS011;15207;42.182;24.308;2022-08-30T00:49:34;13.90;;;8.73;;
27839;SDS011;15207;42.182;24.308;2022-08-30T00:52:02;20.25;;;8.90;;
27839;SDS011;15207;42.182;24.308;2022-08-30T00:54:29;14.95;;;9.05;;
27839;SDS011;15207;42.182;24.308;2022-08-30T00:56:57;15.80;;;9.20;;
27839;SDS011;15207;42.182;24.308;2022-08-30T00:59:23;17.70;;;8.80;;
27839;SDS011;15207;42.182;24.308;2022-08-30T01:04:16;16.02;;;9.18;;
27839;SDS011;15207;42.182;24.308;2022-08-30T01:06:44;16.35;;;8.77;;
27839;SDS011;15207;42.182;24.308;2022-08-30T01:09:10;21.80;;;10.00;;
27839;SDS011;15207;42.182;24.308;2022-08-30T01:14:06;14.90;;;8.65;;
27839;SDS011;15207;42.182;24.308;2022-08-30T01:16:32;16.52;;;8.90;;
27839;SDS011;15207;42.182;24.308;2022-08-30T01:18:59;13.60;;;10.20;;
27839;SDS011;15207;42.182;24.308;2022-08-30T01:24:00;20.10;;;9.25;;
27839;SDS011;15207;42.182;24.308;2022-08-30T01:26:28;16.40;;;9.30;;
27839;SDS011;15207;42.182;24.308;2022-08-30T01:28:55;15.00;;;8.75;;
27839;SDS011;15207;42.182;24.308;2022-08-30T01:31:25;17.60;;;9.60;;
27839;SDS011;15207;42.182;24.308;2022-08-30T01:33:51;13.50;;;10.00;;
27839;SDS011;15207;42.182;24.308;2022-08-30T01:36:16;15.97;;;9.33;;
27839;SDS011;15207;42.182;24.308;2022-08-30T01:38:53;14.02;;;9.52;;
27839;SDS011;15207;42.182;24.308;2022-08-30T01:43:48;23.70;;;10.30;;
27839;SDS011;15207;42.182;24.308;2022-08-30T01:46:16;16.90;;;9.50;;
27839;SDS011;15207;42.182;24.308;2022-08-30T01:48:43;16.95;;;9.38;;
27839;SDS011;15207;42.182;24.308;2022-08-30T01:51:10;13.40;;;9.40;;
27839;SDS011;15207;42.182;24.308;2022-08-30T01:53:39;17.23;;;9.93;;
27839;SDS011;15207;42.182;24.308;2022-08-30T01:56:06;14.00;;;9.50;;
27839;SDS011;15207;42.182;24.308;2022-08-30T01:58:33;16.10;;;9.90;;
27839;SDS011;15207;42.182;24.308;2022-08-30T02:01:00;16.43;;;9.77;;
27839;SDS011;15207;42.182;24.308;2022-08-30T02:05:56;15.00;;;10.20;;
27839;SDS011;15207;42.182;24.308;2022-08-30T02:08:29;19.70;;;10.90;;
27839;SDS011;15207;42.182;24.308;2022-08-30T02:10:55;15.60;;;9.43;;
27839;SDS011;15207;42.182;24.308;2022-08-30T02:13:23;13.35;;;9.55;;
27839;SDS011;15207;42.182;24.308;2022-08-30T02:15:49;15.93;;;10.88;;
27839;SDS011;15207;42.182;24.308;2022-08-30T02:18:15;19.85;;;9.95;;
27839;SDS011;15207;42.182;24.308;2022-08-30T02:20:40;15.45;;;9.93;;
27839;SDS011;15207;42.182;24.308;2022-08-30T02:23:06;22.60;;;10.38;;
27839;SDS011;15207;42.182;24.308;2022-08-30T02:25:32;17.75;;;10.05;;
27839;SDS011;15207;42.182;24.308;2022-08-30T02:30:24;16.70;;;9.90;;
27839;SDS011;15207;42.182;24.308;2022-08-30T02:32:50;16.30;;;10.50;;
27839;SDS011;15207;42.182;24.308;2022-08-30T02:35:15;18.80;;;10.80;;
27839;SDS011;15207;42.182;24.308;2022-08-30T02:37:41;15.20;;;9.70;;
27839;SDS011;15207;42.182;24.308;2022-08-30T02:40:07;18.90;;;9.90;;
27839;SDS011;15207;42.182;24.308;2022-08-30T02:42:34;14.70;;;10.15;;
27839;SDS011;15207;42.182;24.308;2022-08-30T02:44:59;20.90;;;9.98;;
27839;SDS011;15207;42.182;24.308;2022-08-30T02:47:25;16.95;;;9.70;;
27839;SDS011;15207;42.182;24.308;2022-08-30T02:49:50;18.15;;;8.95;;
27839;SDS011;15207;42.182;24.308;2022-08-30T02:54:41;15.32;;;9.50;;
27839;SDS011;15207;42.182;24.308;2022-08-30T02:57:07;14.57;;;9.75;;
27839;SDS011;15207;42.182;24.308;2022-08-30T02:59:33;14.55;;;9.85;;
27839;SDS011;15207;42.182;24.308;2022-08-30T03:02:02;19.75;;;10.00;;
27839;SDS011;15207;42.182;24.308;2022-08-30T03:04:27;19.00;;;9.35;;
27839;SDS011;15207;42.182;24.308;2022-08-30T03:06:53;20.63;;;10.00;;
27839;SDS011;15207;42.182;24.308;2022-08-30T03:09:19;15.00;;;10.20;;
27839;SDS011;15207;42.182;24.308;2022-08-30T03:11:46;14.23;;;9.77;;
27839;SDS011;15207;42.182;24.308;2022-08-30T03:14:11;18.13;;;10.13;;
27839;SDS011;15207;42.182;24.308;2022-08-30T03:19:03;22.55;;;9.93;;
27839;SDS011;15207;42.182;24.308;2022-08-30T03:21:28;19.80;;;9.77;;
27839;SDS011;15207;42.182;24.308;2022-08-30T03:23:54;20.50;;;11.05;;
27839;SDS011;15207;42.182;24.308;2022-08-30T03:26:20;17.90;;;10.50;;
27839;SDS011;15207;42.182;24.308;2022-08-30T03:31:11;14.20;;;11.15;;
27839;SDS011;15207;42.182;24.308;2022-08-30T03:33:37;14.77;;;10.75;;
27839;SDS011;15207;42.182;24.308;2022-08-30T03:36:04;14.65;;;11.05;;
27839;SDS011;15207;42.182;24.308;2022-08-30T03:38:31;21.52;;;11.18;;
27839;SDS011;15207;42.182;24.308;2022-08-30T03:40:57;19.98;;;11.43;;
27839;SDS011;15207;42.182;24.308;2022-08-30T03:43:22;21.40;;;11.55;;
27839;SDS011;15207;42.182;24.308;2022-08-30T03:45:48;21.58;;;11.48;;
27839;SDS011;15207;42.182;24.308;2022-08-30T03:48:14;22.70;;;11.40;;
27839;SDS011;15207;42.182;24.308;2022-08-30T03:50:39;13.95;;;10.57;;
27839;SDS011;15207;42.182;24.308;2022-08-30T03:53:05;16.17;;;10.05;;
27839;SDS011;15207;42.182;24.308;2022-08-30T03:55:30;13.93;;;9.73;;
27839;SDS011;15207;42.182;24.308;2022-08-30T03:57:56;16.98;;;10.10;;
27839;SDS011;15207;42.182;24.308;2022-08-30T04:02:47;16.63;;;9.57;;
27839;SDS011;15207;42.182;24.308;2022-08-30T04:05:13;21.07;;;9.63;;
27839;SDS011;15207;42.182;24.308;2022-08-30T04:07:39;18.40;;;9.80;;
27839;SDS011;15207;42.182;24.308;2022-08-30T04:10:05;15.65;;;9.65;;
27839;SDS011;15207;42.182;24.308;2022-08-30T04:12:33;14.50;;;9.30;;
27839;SDS011;15207;42.182;24.308;2022-08-30T04:14:59;18.87;;;9.67;;
27839;SDS011;15207;42.182;24.308;2022-08-30T04:17:25;18.70;;;9.40;;
27839;SDS011;15207;42.182;24.308;2022-08-30T04:19:51;16.95;;;10.10;;
27839;SDS011;15207;42.182;24.308;2022-08-30T04:22:17;16.70;;;9.50;;
27839;SDS011;15207;42.182;24.308;2022-08-30T04:31:59;14.85;;;10.25;;
27839;SDS011;15207;42.182;24.308;2022-08-30T04:34:24;23.40;;;11.20;;
27839;SDS011;15207;42.182;24.308;2022-08-30T04:39:18;16.10;;;10.60;;
27839;SDS011;15207;42.182;24.308;2022-08-30T04:41:44;20.40;;;11.15;;
27839;SDS011;15207;42.182;24.308;2022-08-30T04:44:09;18.90;;;11.50;;
27839;SDS011;15207;42.182;24.308;2022-08-30T04:46:35;13.20;;;10.50;;
27839;SDS011;15207;42.182;24.308;2022-08-30T04:49:02;16.00;;;11.00;;
27839;SDS011;15207;42.182;24.308;2022-08-30T04:51:29;17.92;;;11.40;;
27839;SDS011;15207;42.182;24.308;2022-08-30T04:53:54;28.50;;;11.50;;
27839;SDS011;15207;42.182;24.308;2022-08-30T04:56:21;24.20;;;10.55;;
27839;SDS011;15207;42.182;24.308;2022-08-30T04:58:49;19.00;;;11.18;;
27839;SDS011;15207;42.182;24.308;2022-08-30T05:03:43;17.85;;;10.25;;
27839;SDS011;15207;42.182;24.308;2022-08-30T05:06:11;28.35;;;10.65;;
27839;SDS011;15207;42.182;24.308;2022-08-30T05:13:29;23.70;;;10.45;;
27839;SDS011;15207;42.182;24.308;2022-08-30T05:15:55;22.60;;;9.90;;
27839;SDS011;15207;42.182;24.308;2022-08-30T05:18:21;18.80;;;9.90;;
27839;SDS011;15207;42.182;24.308;2022-08-30T05:20:47;16.00;;;8.75;;
27839;SDS011;15207;42.182;24.308;2022-08-30T05:23:13;15.70;;;9.85;;
27839;SDS011;15207;42.182;24.308;2022-08-30T05:25:39;20.73;;;9.20;;
27839;SDS011;15207;42.182;24.308;2022-08-30T05:28:06;22.90;;;10.10;;
27839;SDS011;15207;42.182;24.308;2022-08-30T05:30:34;21.70;;;9.70;;
27839;SDS011;15207;42.182;24.308;2022-08-30T05:33:01;23.20;;;10.23;;
27839;SDS011;15207;42.182;24.308;2022-08-30T05:37:53;13.50;;;8.90;;
27839;SDS011;15207;42.182;24.308;2022-08-30T05:42:45;23.95;;;10.90;;
27839;SDS011;15207;42.182;24.308;2022-08-30T05:45:12;22.80;;;10.00;;
27839;SDS011;15207;42.182;24.308;2022-08-30T05:47:39;16.52;;;10.50;;
27839;SDS011;15207;42.182;24.308;2022-08-30T05:50:05;26.20;;;10.40;;
27839;SDS011;15207;42.182;24.308;2022-08-30T05:52:36;20.20;;;10.10;;
27839;SDS011;15207;42.182;24.308;2022-08-30T05:57:30;27.95;;;11.00;;
27839;SDS011;15207;42.182;24.308;2022-08-30T06:00:01;25.90;;;12.30;;
27839;SDS011;15207;42.182;24.308;2022-08-30T06:02:28;26.60;;;13.32;;
27839;SDS011;15207;42.182;24.308;2022-08-30T06:04:54;20.80;;;12.25;;
27839;SDS011;15207;42.182;24.308;2022-08-30T06:07:19;25.83;;;12.80;;
27839;SDS011;15207;42.182;24.308;2022-08-30T06:09:45;27.55;;;13.05;;
27839;SDS011;15207;42.182;24.308;2022-08-30T06:12:10;21.70;;;11.90;;
27839;SDS011;15207;42.182;24.308;2022-08-30T06:14:36;26.10;;;12.10;;
27839;SDS011;15207;42.182;24.308;2022-08-30T06:17:04;23.45;;;13.80;;
27839;SDS011;15207;42.182;24.308;2022-08-30T06:19:30;20.70;;;12.10;;
27839;SDS011;15207;42.182;24.308;2022-08-30T06:21:55;26.10;;;14.60;;
27839;SDS011;15207;42.182;24.308;2022-08-30T06:24:21;21.00;;;11.13;;
27839;SDS011;15207;42.182;24.308;2022-08-30T06:26:46;27.42;;;11.95;;
27839;SDS011;15207;42.182;24.308;2022-08-30T06:29:13;24.27;;;11.23;;
27839;SDS011;15207;42.182;24.308;2022-08-30T06:31:43;21.30;;;10.00;;
27839;SDS011;15207;42.182;24.308;2022-08-30T06:34:09;35.50;;;14.95;;
27839;SDS011;15207;42.182;24.308;2022-08-30T06:36:35;23.10;;;10.40;;
27839;SDS011;15207;42.182;24.308;2022-08-30T06:39:00;22.60;;;10.35;;
27839;SDS011;15207;42.182;24.308;2022-08-30T06:41:28;26.00;;;10.60;;
27839;SDS011;15207;42.182;24.308;2022-08-30T06:43:56;21.27;;;10.47;;
27839;SDS011;15207;42.182;24.308;2022-08-30T06:46:24;84.35;;;12.45;;
27839;SDS011;15207;42.182;24.308;2022-08-30T06:48:52;41.30;;;9.90;;
27839;SDS011;15207;42.182;24.308;2022-08-30T06:51:18;23.30;;;9.60;;
27839;SDS011;15207;42.182;24.308;2022-08-30T06:53:46;28.05;;;10.80;;
27839;SDS011;15207;42.182;24.308;2022-08-30T06:56:13;35.00;;;11.80;;
27839;SDS011;15207;42.182;24.308;2022-08-30T06:58:39;39.60;;;10.50;;
27839;SDS011;15207;42.182;24.308;2022-08-30T07:01:05;28.10;;;10.50;;
27839;SDS011;15207;42.182;24.308;2022-08-30T07:05:58;18.20;;;9.85;;
27839;SDS011;15207;42.182;24.308;2022-08-30T07:08:24;19.50;;;8.77;;
27839;SDS011;15207;42.182;24.308;2022-08-30T07:10:51;23.90;;;9.80;;
27839;SDS011;15207;42.182;24.308;2022-08-30T07:13:19;19.20;;;9.40;;
27839;SDS011;15207;42.182;24.308;2022-08-30T07:15:46;32.85;;;9.93;;
27839;SDS011;15207;42.182;24.308;2022-08-30T07:18:12;19.37;;;9.50;;
27839;SDS011;15207;42.182;24.308;2022-08-30T07:20:58;19.30;;;9.00;;
27839;SDS011;15207;42.182;24.308;2022-08-30T07:23:37;12.70;;;9.02;;
27839;SDS011;15207;42.182;24.308;2022-08-30T07:26:07;21.40;;;11.40;;
27839;SDS011;15207;42.182;24.308;2022-08-30T07:28:39;14.00;;;9.30;;
27839;SDS011;15207;42.182;24.308;2022-08-30T07:31:07;17.20;;;10.30;;
27839;SDS011;15207;42.182;24.308;2022-08-30T07:33:33;16.90;;;9.80;;
27839;SDS011;15207;42.182;24.308;2022-08-30T07:38:25;22.50;;;9.25;;
27839;SDS011;15207;42.182;24.308;2022-08-30T07:40:52;23.77;;;9.65;;
27839;SDS011;15207;42.182;24.308;2022-08-30T07:43:18;34.87;;;10.40;;
27839;SDS011;15207;42.182;24.308;2022-08-30T07:45:44;20.00;;;9.65;;
27839;SDS011;15207;42.182;24.308;2022-08-30T07:48:10;22.13;;;9.35;;
27839;SDS011;15207;42.182;24.308;2022-08-30T07:50:41;15.70;;;8.80;;
27839;SDS011;15207;42.182;24.308;2022-08-30T07:53:08;16.20;;;8.50;;
27839;SDS011;15207;42.182;24.308;2022-08-30T07:55:34;16.15;;;8.05;;
27839;SDS011;15207;42.182;24.308;2022-08-30T08:00:25;16.90;;;9.13;;
27839;SDS011;15207;42.182;24.308;2022-08-30T08:02:51;14.10;;;8.45;;
27839;SDS011;15207;42.182;24.308;2022-08-30T08:05:17;20.80;;;9.30;;
27839;SDS011;15207;42.182;24.308;2022-08-30T08:07:43;15.20;;;8.97;;
27839;SDS011;15207;42.182;24.308;2022-08-30T08:10:09;16.15;;;8.55;;
27839;SDS011;15207;42.182;24.308;2022-08-30T08:12:38;16.52;;;9.02;;
27839;SDS011;15207;42.182;24.308;2022-08-30T08:15:04;28.40;;;9.80;;
27839;SDS011;15207;42.182;24.308;2022-08-30T08:17:31;15.50;;;8.90;;
27839;SDS011;15207;42.182;24.308;2022-08-30T08:19:56;13.50;;;8.70;;
27839;SDS011;15207;42.182;24.308;2022-08-30T08:22:22;14.30;;;8.60;;
27839;SDS011;15207;42.182;24.308;2022-08-30T08:24:48;17.70;;;8.90;;
27839;SDS011;15207;42.182;24.308;2022-08-30T08:27:14;23.40;;;8.70;;
27839;SDS011;15207;42.182;24.308;2022-08-30T08:29:40;18.50;;;9.30;;
27839;SDS011;15207;42.182;24.308;2022-08-30T08:32:06;26.00;;;9.80;;
27839;SDS011;15207;42.182;24.308;2022-08-30T08:34:31;16.05;;;9.10;;
27839;SDS011;15207;42.182;24.308;2022-08-30T08:36:58;18.80;;;9.40;;
27839;SDS011;15207;42.182;24.308;2022-08-30T08:39:24;15.85;;;9.20;;
27839;SDS011;15207;42.182;24.308;2022-08-30T08:47:46;14.60;;;8.30;;
27839;SDS011;15207;42.182;24.308;2022-08-30T08:50:46;17.10;;;8.23;;
27839;SDS011;15207;42.182;24.308;2022-08-30T08:53:31;14.00;;;8.60;;
27839;SDS011;15207;42.182;24.308;2022-08-30T08:55:59;23.75;;;9.70;;
27839;SDS011;15207;42.182;24.308;2022-08-30T09:00:55;21.35;;;9.05;;
27839;SDS011;15207;42.182;24.308;2022-08-30T09:03:24;23.00;;;9.00;;
27839;SDS011;15207;42.182;24.308;2022-08-30T09:05:51;14.70;;;9.10;;
27839;SDS011;15207;42.182;24.308;2022-08-30T09:08:19;14.60;;;8.95;;
27839;SDS011;15207;42.182;24.308;2022-08-30T09:10:54;22.08;;;10.10;;
27839;SDS011;15207;42.182;24.308;2022-08-30T09:13:24;16.70;;;8.90;;
27839;SDS011;15207;42.182;24.308;2022-08-30T09:15:51;17.40;;;8.73;;
27839;SDS011;15207;42.182;24.308;2022-08-30T09:18:18;11.70;;;8.60;;
27839;SDS011;15207;42.182;24.308;2022-08-30T09:20:45;22.10;;;8.70;;
27839;SDS011;15207;42.182;24.308;2022-08-30T09:26:05;16.55;;;8.00;;
27839;SDS011;15207;42.182;24.308;2022-08-30T09:28:43;14.90;;;8.25;;
27839;SDS011;15207;42.182;24.308;2022-08-30T09:34:01;15.33;;;8.63;;
27839;SDS011;15207;42.182;24.308;2022-08-30T09:36:33;13.90;;;8.10;;
27839;SDS011;15207;42.182;24.308;2022-08-30T09:39:14;14.50;;;8.20;;
27839;SDS011;15207;42.182;24.308;2022-08-30T09:41:43;15.90;;;7.20;;
27839;SDS011;15207;42.182;24.308;2022-08-30T09:46:54;20.30;;;7.70;;
27839;SDS011;15207;42.182;24.308;2022-08-30T09:49:29;14.63;;;8.40;;
27839;SDS011;15207;42.182;24.308;2022-08-30T09:57:30;12.30;;;7.60;;
27839;SDS011;15207;42.182;24.308;2022-08-30T10:16:00;13.73;;;8.20;;
27839;SDS011;15207;42.182;24.308;2022-08-30T10:21:22;12.30;;;8.00;;
27839;SDS011;15207;42.182;24.308;2022-08-30T10:29:00;13.35;;;7.60;;
27839;SDS011;15207;42.182;24.308;2022-08-30T10:31:35;14.90;;;7.35;;
27839;SDS011;15207;42.182;24.308;2022-08-30T10:34:04;17.35;;;8.40;;
27839;SDS011;15207;42.182;24.308;2022-08-30T10:36:39;13.73;;;7.90;;
27839;SDS011;15207;42.182;24.308;2022-08-30T10:39:12;14.30;;;7.20;;
27839;SDS011;15207;42.182;24.308;2022-08-30T10:41:45;13.38;;;8.15;;
27839;SDS011;15207;42.182;24.308;2022-08-30T10:44:19;11.35;;;6.95;;
27839;SDS011;15207;42.182;24.308;2022-08-30T10:50:05;15.20;;;8.00;;
27839;SDS011;15207;42.182;24.308;2022-08-30T10:52:41;20.55;;;8.55;;
27839;SDS011;15207;42.182;24.308;2022-08-30T10:55:16;11.70;;;7.60;;
27839;SDS011;15207;42.182;24.308;2022-08-30T10:57:46;12.90;;;7.70;;
27839;SDS011;15207;42.182;24.308;2022-08-30T11:00:14;12.10;;;8.15;;
27839;SDS011;15207;42.182;24.308;2022-08-30T11:06:10;11.57;;;7.45;;
27839;SDS011;15207;42.182;24.308;2022-08-30T11:14:24;12.25;;;7.85;;
27839;SDS011;15207;42.182;24.308;2022-08-30T11:16:51;20.10;;;8.20;;
27839;SDS011;15207;42.182;24.308;2022-08-30T11:19:33;15.60;;;7.70;;
27839;SDS011;15207;42.182;24.308;2022-08-30T11:24:58;12.57;;;8.17;;
27839;SDS011;15207;42.182;24.308;2022-08-30T11:27:38;13.05;;;7.95;;
27839;SDS011;15207;42.182;24.308;2022-08-30T11:48:44;13.20;;;7.97;;
27839;SDS011;15207;42.182;24.308;2022-08-30T11:54:11;15.30;;;8.30;;
27839;SDS011;15207;42.182;24.308;2022-08-30T12:02:07;15.70;;;7.60;;
27839;SDS011;15207;42.182;24.308;2022-08-30T12:04:42;15.20;;;8.00;;
27839;SDS011;15207;42.182;24.308;2022-08-30T12:07:10;13.10;;;7.55;;
27839;SDS011;15207;42.182;24.308;2022-08-30T12:09:57;13.30;;;7.80;;
27839;SDS011;15207;42.182;24.308;2022-08-30T12:25:48;17.33;;;7.50;;
27839;SDS011;15207;42.182;24.308;2022-08-30T12:28:19;14.30;;;6.70;;
27839;SDS011;15207;42.182;24.308;2022-08-30T12:30:47;16.95;;;7.65;;
27839;SDS011;15207;42.182;24.308;2022-08-30T12:33:22;11.45;;;6.95;;
27839;SDS011;15207;42.182;24.308;2022-08-30T12:35:56;14.10;;;7.30;;
27839;SDS011;15207;42.182;24.308;2022-08-30T12:38:23;12.40;;;6.85;;
27839;SDS011;15207;42.182;24.308;2022-08-30T12:43:23;10.50;;;6.90;;
27839;SDS011;15207;42.182;24.308;2022-08-30T12:45:49;15.07;;;6.93;;
27839;SDS011;15207;42.182;24.308;2022-08-30T12:48:16;15.65;;;6.85;;
27839;SDS011;15207;42.182;24.308;2022-08-30T12:50:47;14.05;;;7.00;;
27839;SDS011;15207;42.182;24.308;2022-08-30T12:53:37;12.60;;;6.70;;
27839;SDS011;15207;42.182;24.308;2022-08-30T12:56:11;17.10;;;7.10;;
27839;SDS011;15207;42.182;24.308;2022-08-30T12:58:45;14.60;;;6.55;;
27839;SDS011;15207;42.182;24.308;2022-08-30T13:06:52;15.60;;;6.85;;
27839;SDS011;15207;42.182;24.308;2022-08-30T13:12:14;16.85;;;7.05;;
27839;SDS011;15207;42.182;24.308;2022-08-30T13:17:22;14.60;;;7.47;;
27839;SDS011;15207;42.182;24.308;2022-08-30T13:22:30;34.60;;;9.80;;
27839;SDS011;15207;42.182;24.308;2022-08-30T13:32:21;41.03;;;17.58;;
27839;SDS011;15207;42.182;24.308;2022-08-30T13:34:47;31.20;;;16.60;;
27839;SDS011;15207;42.182;24.308;2022-08-30T13:37:20;26.80;;;13.20;;
27839;SDS011;15207;42.182;24.308;2022-08-30T13:39:47;29.60;;;13.60;;
27839;SDS011;15207;42.182;24.308;2022-08-30T13:42:13;34.40;;;14.10;;
27839;SDS011;15207;42.182;24.308;2022-08-30T13:44:39;29.58;;;17.63;;
27839;SDS011;15207;42.182;24.308;2022-08-30T13:47:04;32.10;;;18.27;;
27839;SDS011;15207;42.182;24.308;2022-08-30T13:49:32;37.53;;;20.65;;
27839;SDS011;15207;42.182;24.308;2022-08-30T13:52:00;49.60;;;25.50;;
27839;SDS011;15207;42.182;24.308;2022-08-30T13:54:27;41.57;;;25.07;;
27839;SDS011;15207;42.182;24.308;2022-08-30T13:56:53;43.25;;;27.85;;
27839;SDS011;15207;42.182;24.308;2022-08-30T13:59:20;55.20;;;32.90;;
27839;SDS011;15207;42.182;24.308;2022-08-30T14:01:46;54.03;;;29.17;;
27839;SDS011;15207;42.182;24.308;2022-08-30T14:04:12;43.15;;;27.30;;
27839;SDS011;15207;42.182;24.308;2022-08-30T14:06:38;38.95;;;25.52;;
27839;SDS011;15207;42.182;24.308;2022-08-30T14:09:04;43.30;;;26.00;;
27839;SDS011;15207;42.182;24.308;2022-08-30T14:11:32;43.80;;;26.27;;
27839;SDS011;15207;42.182;24.308;2022-08-30T14:13:59;47.13;;;26.90;;
27839;SDS011;15207;42.182;24.308;2022-08-30T14:16:25;45.72;;;29.58;;
27839;SDS011;15207;42.182;24.308;2022-08-30T14:18:51;45.40;;;27.10;;
27839;SDS011;15207;42.182;24.308;2022-08-30T14:21:16;44.10;;;26.90;;
27839;SDS011;15207;42.182;24.308;2022-08-30T14:23:42;32.60;;;21.00;;
27839;SDS011;15207;42.182;24.308;2022-08-30T14:26:11;40.00;;;26.13;;
27839;SDS011;15207;42.182;24.308;2022-08-30T14:28:41;40.20;;;30.05;;
27839;SDS011;15207;42.182;24.308;2022-08-30T14:31:07;44.08;;;30.65;;
27839;SDS011;15207;42.182;24.308;2022-08-30T14:33:32;39.70;;;24.80;;
27839;SDS011;15207;42.182;24.308;2022-08-30T14:35:58;34.92;;;22.90;;
27839;SDS011;15207;42.182;24.308;2022-08-30T14:38:23;29.00;;;20.73;;
27839;SDS011;15207;42.182;24.308;2022-08-30T14:40:49;31.75;;;19.25;;
27839;SDS011;15207;42.182;24.308;2022-08-30T14:43:15;26.33;;;15.53;;
27839;SDS011;15207;42.182;24.308;2022-08-30T14:45:40;23.67;;;15.30;;
27839;SDS011;15207;42.182;24.308;2022-08-30T14:48:06;20.80;;;16.27;;
27839;SDS011;15207;42.182;24.308;2022-08-30T14:50:35;19.80;;;14.70;;
27839;SDS011;15207;42.182;24.308;2022-08-30T14:53:01;19.00;;;14.40;;
27839;SDS011;15207;42.182;24.308;2022-08-30T14:55:27;21.40;;;14.20;;
27839;SDS011;15207;42.182;24.308;2022-08-30T14:57:54;22.25;;;15.10;;
27839;SDS011;15207;42.182;24.308;2022-08-30T15:00:20;20.80;;;15.10;;
27839;SDS011;15207;42.182;24.308;2022-08-30T15:02:47;19.95;;;13.60;;
27839;SDS011;15207;42.182;24.308;2022-08-30T15:05:13;26.83;;;12.83;;
27839;SDS011;15207;42.182;24.308;2022-08-30T15:07:39;19.20;;;12.50;;
27839;SDS011;15207;42.182;24.308;2022-08-30T15:10:05;22.40;;;14.60;;
27839;SDS011;15207;42.182;24.308;2022-08-30T15:12:31;21.83;;;13.90;;
27839;SDS011;15207;42.182;24.308;2022-08-30T15:14:57;22.95;;;14.30;;
27839;SDS011;15207;42.182;24.308;2022-08-30T15:17:22;18.65;;;13.20;;
27839;SDS011;15207;42.182;24.308;2022-08-30T15:19:48;21.33;;;13.30;;
27839;SDS011;15207;42.182;24.308;2022-08-30T15:22:13;23.00;;;14.45;;
27839;SDS011;15207;42.182;24.308;2022-08-30T15:24:39;24.50;;;14.80;;
27839;SDS011;15207;42.182;24.308;2022-08-30T15:29:30;21.63;;;13.20;;
27839;SDS011;15207;42.182;24.308;2022-08-30T15:31:56;21.80;;;13.60;;
27839;SDS011;15207;42.182;24.308;2022-08-30T15:34:22;19.20;;;12.70;;
27839;SDS011;15207;42.182;24.308;2022-08-30T15:36:49;18.35;;;14.45;;
27839;SDS011;15207;42.182;24.308;2022-08-30T15:39:15;21.15;;;14.75;;
27839;SDS011;15207;42.182;24.308;2022-08-30T15:41:42;19.50;;;16.05;;
27839;SDS011;15207;42.182;24.308;2022-08-30T15:44:09;33.50;;;16.70;;
27839;SDS011;15207;42.182;24.308;2022-08-30T15:46:37;39.40;;;17.80;;
27839;SDS011;15207;42.182;24.308;2022-08-30T15:49:05;36.80;;;16.80;;
27839;SDS011;15207;42.182;24.308;2022-08-30T15:51:33;34.20;;;17.70;;
27839;SDS011;15207;42.182;24.308;2022-08-30T15:54:00;37.50;;;15.57;;
27839;SDS011;15207;42.182;24.308;2022-08-30T15:56:27;50.88;;;14.82;;
27839;SDS011;15207;42.182;24.308;2022-08-30T15:58:53;37.70;;;15.00;;
27839;SDS011;15207;42.182;24.308;2022-08-30T16:01:19;20.60;;;13.20;;
27839;SDS011;15207;42.182;24.308;2022-08-30T16:06:12;29.15;;;15.30;;
27839;SDS011;15207;42.182;24.308;2022-08-30T16:08:42;22.10;;;14.00;;
27839;SDS011;15207;42.182;24.308;2022-08-30T16:11:09;31.85;;;14.90;;
27839;SDS011;15207;42.182;24.308;2022-08-30T16:13:36;33.80;;;16.05;;
27839;SDS011;15207;42.182;24.308;2022-08-30T16:18:28;29.73;;;16.25;;
27839;SDS011;15207;42.182;24.308;2022-08-30T16:21:11;29.55;;;16.85;;
27839;SDS011;15207;42.182;24.308;2022-08-30T16:23:45;39.30;;;16.50;;
27839;SDS011;15207;42.182;24.308;2022-08-30T16:26:11;35.38;;;17.67;;
27839;SDS011;15207;42.182;24.308;2022-08-30T16:28:38;33.75;;;18.02;;
27839;SDS011;15207;42.182;24.308;2022-08-30T16:31:06;45.50;;;17.90;;
27839;SDS011;15207;42.182;24.308;2022-08-30T16:33:32;31.85;;;17.75;;
27839;SDS011;15207;42.182;24.308;2022-08-30T16:35:58;29.50;;;17.77;;
27839;SDS011;15207;42.182;24.308;2022-08-30T16:38:24;29.25;;;16.90;;
27839;SDS011;15207;42.182;24.308;2022-08-30T16:43:17;27.83;;;18.15;;
27839;SDS011;15207;42.182;24.308;2022-08-30T16:45:43;27.00;;;17.00;;
27839;SDS011;15207;42.182;24.308;2022-08-30T16:48:10;27.02;;;16.75;;
27839;SDS011;15207;42.182;24.308;2022-08-30T16:50:37;32.50;;;17.00;;
27839;SDS011;15207;42.182;24.308;2022-08-30T16:53:04;31.45;;;17.65;;
27839;SDS011;15207;42.182;24.308;2022-08-30T16:55:31;25.10;;;17.50;;
27839;SDS011;15207;42.182;24.308;2022-08-30T16:58:00;36.63;;;16.30;;
27839;SDS011;15207;42.182;24.308;2022-08-30T17:00:29;34.55;;;17.05;;
27839;SDS011;15207;42.182;24.308;2022-08-30T17:02:56;43.35;;;17.95;;
27839;SDS011;15207;42.182;24.308;2022-08-30T17:05:22;38.45;;;18.35;;
27839;SDS011;15207;42.182;24.308;2022-08-30T17:07:48;26.85;;;15.90;;
27839;SDS011;15207;42.182;24.308;2022-08-30T17:10:14;25.17;;;15.95;;
27839;SDS011;15207;42.182;24.308;2022-08-30T17:12:41;41.00;;;16.95;;
27839;SDS011;15207;42.182;24.308;2022-08-30T17:15:07;33.15;;;16.60;;
27839;SDS011;15207;42.182;24.308;2022-08-30T17:17:33;31.00;;;17.00;;
27839;SDS011;15207;42.182;24.308;2022-08-30T17:22:24;34.60;;;16.50;;
27839;SDS011;15207;42.182;24.308;2022-08-30T17:24:50;27.73;;;16.95;;
27839;SDS011;15207;42.182;24.308;2022-08-30T17:27:16;34.90;;;18.80;;
27839;SDS011;15207;42.182;24.308;2022-08-30T17:29:42;33.17;;;16.02;;
27839;SDS011;15207;42.182;24.308;2022-08-30T17:32:08;30.05;;;16.63;;
27839;SDS011;15207;42.182;24.308;2022-08-30T17:34:34;29.33;;;16.05;;